Time,TemperatureF,DewpointF,PressureIn,WindDirection,WindDirectionDegrees,WindSpeedMPH,WindSpeedGustMPH,Humidity,HourlyPrecipIn,Conditions,Clouds,dailyrainin,SoftwareType,DateUTC
2013-09-13 00:07:00,70.0,69.0,29.73,East,86,0.0,2.0,96,0.00,,,0.00,weatherlink.com 1.10,2013-09-13 04:07:00,
2013-09-13 00:21:00,69.6,69.0,29.73,NNE,24,0.0,2.0,96,0.00,,,0.00,weatherlink.com 1.10,2013-09-13 04:21:00,
2013-09-13 00:36:00,69.4,68.0,29.72,ESE,109,0.0,2.0,96,0.00,,,0.00,weatherlink.com 1.10,2013-09-13 04:36:00,
2013-09-13 00:51:00,69.3,68.0,29.72,ESE,108,0.0,1.0,96,0.00,,,0.00,weatherlink.com 1.10,2013-09-13 04:51:00,
2013-09-13 01:06:00,69.2,68.0,29.72,SSE,156,0.0,0.0,97,0.00,,,0.00,weatherlink.com 1.10,2013-09-13 05:06:00,
2013-09-13 01:21:00,69.2,68.0,29.71,SSE,156,0.0,0.0,97,0.00,,,0.00,weatherlink.com 1.10,2013-09-13 05:21:00,
2013-09-13 01:38:00,69.0,68.0,29.70,SSE,156,0.0,0.0,97,0.00,,,0.00,weatherlink.com 1.10,2013-09-13 05:38:00,
2013-09-13 01:53:00,68.9,68.0,29.70,SSE,156,0.0,0.0,97,0.00,,,0.00,weatherlink.com 1.10,2013-09-13 05:53:00,
2013-09-13 02:08:00,68.8,68.0,29.71,SSE,156,0.0,0.0,97,0.00,,,0.00,weatherlink.com 1.10,2013-09-13 06:08:00,
2013-09-13 02:23:00,68.6,68.0,29.69,SSE,156,0.0,0.0,97,0.00,,,0.00,weatherlink.com 1.10,2013-09-13 06:23:00,
2013-09-13 02:38:00,68.7,68.0,29.69,SSE,156,0.0,0.0,97,0.00,,,0.00,weatherlink.com 1.10,2013-09-13 06:38:00,
2013-09-13 02:53:00,68.7,68.0,29.68,SSE,155,0.0,0.0,97,0.00,,,0.00,weatherlink.com 1.10,2013-09-13 06:53:00,
2013-09-13 03:08:00,68.7,68.0,29.68,SSE,156,0.0,0.0,97,0.00,,,0.00,weatherlink.com 1.10,2013-09-13 07:08:00,
2013-09-13 03:24:00,68.5,68.0,29.68,SSE,156,0.0,0.0,97,0.00,,,0.00,weatherlink.com 1.10,2013-09-13 07:24:00,
2013-09-13 03:39:00,68.6,68.0,29.68,SSE,156,0.0,0.0,97,0.00,,,0.00,weatherlink.com 1.10,2013-09-13 07:39:00,
2013-09-13 03:54:00,68.5,68.0,29.68,SSE,156,0.0,0.0,97,0.00,,,0.00,weatherlink.com 1.10,2013-09-13 07:54:00,
2013-09-13 04:08:00,68.6,68.0,29.67,SSE,156,0.0,0.0,98,0.00,,,0.00,weatherlink.com 1.10,2013-09-13 08:08:00,
2013-09-13 04:23:00,68.6,68.0,29.68,SSE,156,0.0,0.0,98,0.00,,,0.00,weatherlink.com 1.10,2013-09-13 08:23:00,
2013-09-13 04:39:00,68.7,68.0,29.68,SSE,156,0.0,1.0,98,0.00,,,0.00,weatherlink.com 1.10,2013-09-13 08:39:00,
2013-09-13 04:54:00,68.7,68.0,29.68,SSE,156,0.0,0.0,98,0.00,,,0.00,weatherlink.com 1.10,2013-09-13 08:54:00,
2013-09-13 05:09:00,68.6,68.0,29.68,SSE,156,0.0,0.0,98,0.00,,,0.00,weatherlink.com 1.10,2013-09-13 09:09:00,
2013-09-13 05:24:00,68.5,68.0,29.68,SSE,156,0.0,0.0,98,0.00,,,0.00,weatherlink.com 1.10,2013-09-13 09:24:00,
2013-09-13 05:39:00,68.2,68.0,29.68,SSE,156,0.0,0.0,98,0.00,,,0.00,weatherlink.com 1.10,2013-09-13 09:39:00,
2013-09-13 05:55:00,68.1,68.0,29.68,SSE,156,0.0,0.0,98,0.00,,,0.00,weatherlink.com 1.10,2013-09-13 09:55:00,
2013-09-13 06:10:00,68.0,68.0,29.68,West,278,0.0,1.0,98,0.00,,,0.00,weatherlink.com 1.10,2013-09-13 10:10:00,
2013-09-13 06:25:00,67.5,67.0,29.68,West,278,0.0,0.0,98,0.00,,,0.00,weatherlink.com 1.10,2013-09-13 10:25:00,
2013-09-13 06:40:00,67.3,67.0,29.68,West,278,0.0,0.0,98,0.00,,,0.00,weatherlink.com 1.10,2013-09-13 10:40:00,
2013-09-13 06:55:00,67.4,67.0,29.69,West,278,0.0,1.0,98,0.01,,,0.01,weatherlink.com 1.10,2013-09-13 10:55:00,
2013-09-13 07:10:00,67.3,67.0,29.69,West,278,0.0,0.0,98,0.01,,,0.01,weatherlink.com 1.10,2013-09-13 11:10:00,
2013-09-13 07:25:00,67.2,67.0,29.70,West,278,0.0,0.0,98,0.01,,,0.01,weatherlink.com 1.10,2013-09-13 11:25:00,
2013-09-13 07:40:00,67.7,67.0,29.71,West,278,0.0,0.0,98,0.01,,,0.01,weatherlink.com 1.10,2013-09-13 11:40:00,
2013-09-13 07:55:00,67.9,67.0,29.71,West,278,0.0,0.0,98,0.00,,,0.01,weatherlink.com 1.10,2013-09-13 11:55:00,
2013-09-13 08:10:00,68.4,68.0,29.72,West,277,1.0,1.0,98,0.00,,,0.01,weatherlink.com 1.10,2013-09-13 12:10:00,
2013-09-13 08:25:00,68.0,68.0,29.73,NE,34,0.0,1.0,98,0.00,,,0.01,weatherlink.com 1.10,2013-09-13 12:25:00,
2013-09-13 08:40:00,68.2,67.0,29.72,North,4,0.0,1.0,97,0.00,,,0.01,weatherlink.com 1.10,2013-09-13 12:40:00,
2013-09-13 08:57:00,69.0,67.0,29.73,NE,39,2.0,4.0,94,0.00,,,0.01,weatherlink.com 1.10,2013-09-13 12:57:00,
2013-09-13 09:12:00,70.5,67.0,29.74,West,281,6.0,6.0,88,0.00,,,0.01,weatherlink.com 1.10,2013-09-13 13:12:00,
2013-09-13 09:27:00,70.9,67.0,29.75,NE,49,7.0,8.0,86,0.00,,,0.01,weatherlink.com 1.10,2013-09-13 13:27:00,
2013-09-13 09:42:00,71.8,67.0,29.74,NW,307,0.0,7.0,84,0.00,,,0.01,weatherlink.com 1.10,2013-09-13 13:42:00,
2013-09-13 09:57:00,72.5,66.0,29.74,NNE,14,0.0,7.0,80,0.00,,,0.01,weatherlink.com 1.10,2013-09-13 13:57:00,
2013-09-13 10:12:00,73.5,65.0,29.74,NE,51,0.0,10.0,75,0.00,,,0.01,weatherlink.com 1.10,2013-09-13 14:12:00,
2013-09-13 10:27:00,74.8,65.0,29.74,SSE,159,0.0,5.0,71,0.00,,,0.01,weatherlink.com 1.10,2013-09-13 14:27:00,
2013-09-13 10:42:00,75.1,63.0,29.74,NE,50,0.0,7.0,67,0.00,,,0.01,weatherlink.com 1.10,2013-09-13 14:42:00,
2013-09-13 10:58:00,75.8,62.0,29.75,NE,34,0.0,9.0,63,0.00,,,0.01,weatherlink.com 1.10,2013-09-13 14:58:00,
2013-09-13 11:13:00,76.4,62.0,29.75,NNE,27,1.0,10.0,62,0.00,,,0.01,weatherlink.com 1.10,2013-09-13 15:13:00,
2013-09-13 11:27:00,76.3,62.0,29.75,SW,226,1.0,7.0,62,0.00,,,0.01,weatherlink.com 1.10,2013-09-13 15:27:00,
2013-09-13 11:44:00,75.6,63.0,29.75,ENE,57,1.0,5.0,64,0.00,,,0.01,weatherlink.com 1.10,2013-09-13 15:44:00,
2013-09-13 11:58:00,76.1,62.0,29.75,East,84,3.0,10.0,61,0.00,,,0.01,weatherlink.com 1.10,2013-09-13 15:58:00,
2013-09-13 12:13:00,76.6,63.0,29.75,NNE,18,2.0,5.0,62,0.00,,,0.01,weatherlink.com 1.10,2013-09-13 16:13:00,
2013-09-13 12:28:00,76.4,63.0,29.75,SW,233,2.0,7.0,64,0.00,,,0.01,weatherlink.com 1.10,2013-09-13 16:28:00,
2013-09-13 12:44:00,78.0,63.0,29.75,NNE,14,2.0,8.0,61,0.00,,,0.01,weatherlink.com 1.10,2013-09-13 16:44:00,
2013-09-13 12:58:00,78.1,61.0,29.75,West,264,1.0,7.0,56,0.00,,,0.01,weatherlink.com 1.10,2013-09-13 16:58:00,
2013-09-13 13:15:00,79.5,61.0,29.75,NNE,27,2.0,5.0,54,0.00,,,0.01,weatherlink.com 1.10,2013-09-13 17:15:00,
2013-09-13 13:29:00,79.5,63.0,29.75,North,11,2.0,7.0,58,0.00,,,0.01,weatherlink.com 1.10,2013-09-13 17:29:00,
2013-09-13 13:45:00,79.0,63.0,29.74,NW,309,3.0,6.0,59,0.00,,,0.01,weatherlink.com 1.10,2013-09-13 17:45:00,
2013-09-13 14:00:00,79.4,61.0,29.74,North,352,1.0,7.0,53,0.00,,,0.01,weatherlink.com 1.10,2013-09-13 18:00:00,
2013-09-13 14:15:00,79.6,61.0,29.74,NNW,345,1.0,7.0,53,0.00,,,0.01,weatherlink.com 1.10,2013-09-13 18:15:00,
2013-09-13 14:31:00,79.7,60.0,29.73,NNE,27,1.0,9.0,51,0.00,,,0.01,weatherlink.com 1.10,2013-09-13 18:31:00,
2013-09-13 14:45:00,80.0,60.0,29.73,NE,52,1.0,5.0,51,0.00,,,0.01,weatherlink.com 1.10,2013-09-13 18:45:00,
2013-09-13 15:00:00,79.2,59.0,29.73,ENE,73,0.0,8.0,51,0.00,,,0.01,weatherlink.com 1.10,2013-09-13 19:00:00,
2013-09-13 15:15:00,79.7,60.0,29.73,West,262,2.0,7.0,51,0.00,,,0.01,weatherlink.com 1.10,2013-09-13 19:15:00,
2013-09-13 15:30:00,79.0,60.0,29.72,NE,45,1.0,7.0,52,0.00,,,0.01,weatherlink.com 1.10,2013-09-13 19:30:00,
2013-09-13 15:46:00,78.7,60.0,29.72,WSW,253,0.0,3.0,52,0.00,,,0.01,weatherlink.com 1.10,2013-09-13 19:46:00,
2013-09-13 16:00:00,79.5,60.0,29.72,NNW,342,0.0,3.0,52,0.00,,,0.01,weatherlink.com 1.10,2013-09-13 20:00:00,
2013-09-13 16:15:00,80.5,61.0,29.72,NNE,27,0.0,2.0,52,0.00,,,0.01,weatherlink.com 1.10,2013-09-13 20:15:00,
2013-09-13 16:31:00,79.6,60.0,29.73,NE,34,0.0,3.0,51,0.00,,,0.01,weatherlink.com 1.10,2013-09-13 20:31:00,
2013-09-13 16:46:00,79.6,60.0,29.73,NE,39,2.0,4.0,51,0.00,,,0.01,weatherlink.com 1.10,2013-09-13 20:46:00,
2013-09-13 17:01:00,79.0,59.0,29.74,North,349,4.0,6.0,51,0.00,,,0.01,weatherlink.com 1.10,2013-09-13 21:01:00,
2013-09-13 17:15:00,77.8,59.0,29.74,NNE,16,0.0,6.0,53,0.00,,,0.01,weatherlink.com 1.10,2013-09-13 21:15:00,
2013-09-13 17:30:00,77.6,60.0,29.74,NNE,27,0.0,1.0,54,0.00,,,0.01,weatherlink.com 1.10,2013-09-13 21:30:00,
2013-09-13 17:47:00,76.8,61.0,29.75,NNW,346,0.0,0.0,59,0.00,,,0.01,weatherlink.com 1.10,2013-09-13 21:47:00,
2013-09-13 18:01:00,75.7,59.0,29.74,North,349,0.0,1.0,57,0.00,,,0.01,weatherlink.com 1.10,2013-09-13 22:01:00,
2013-09-13 18:16:00,75.1,60.0,29.75,SW,218,0.0,1.0,59,0.00,,,0.01,weatherlink.com 1.10,2013-09-13 22:16:00,
2013-09-13 18:31:00,74.6,62.0,29.75,SW,218,0.0,0.0,65,0.00,,,0.01,weatherlink.com 1.10,2013-09-13 22:31:00,
2013-09-13 18:46:00,74.2,63.0,29.76,SW,218,0.0,0.0,68,0.00,,,0.01,weatherlink.com 1.10,2013-09-13 22:46:00,
2013-09-13 19:01:00,73.5,63.0,29.76,SW,218,0.0,0.0,70,0.00,,,0.01,weatherlink.com 1.10,2013-09-13 23:01:00,
2013-09-13 19:17:00,70.9,63.0,29.77,SW,218,0.0,0.0,76,0.00,,,0.01,weatherlink.com 1.10,2013-09-13 23:17:00,
2013-09-13 19:32:00,68.4,62.0,29.77,SW,219,0.0,0.0,81,0.00,,,0.01,weatherlink.com 1.10,2013-09-13 23:32:00,
2013-09-13 19:47:00,66.4,62.0,29.78,SW,218,0.0,0.0,85,0.00,,,0.01,weatherlink.com 1.10,2013-09-13 23:47:00,
2013-09-13 20:02:00,65.0,61.0,29.79,SW,218,0.0,0.0,87,0.00,,,0.01,weatherlink.com 1.10,2013-09-14 00:02:00,
2013-09-13 20:17:00,64.4,61.0,29.80,SW,217,0.0,0.0,89,0.00,,,0.01,weatherlink.com 1.10,2013-09-14 00:17:00,
2013-09-13 20:33:00,63.7,61.0,29.80,SW,218,0.0,0.0,90,0.00,,,0.01,weatherlink.com 1.10,2013-09-14 00:33:00,
2013-09-13 20:48:00,63.2,61.0,29.81,SW,218,0.0,0.0,91,0.00,,,0.01,weatherlink.com 1.10,2013-09-14 00:48:00,
2013-09-13 21:03:00,63.9,58.0,29.82,WSW,252,0.0,1.0,82,0.00,,,0.01,weatherlink.com 1.10,2013-09-14 01:03:00,
2013-09-13 21:18:00,66.9,56.0,29.83,NE,36,0.0,9.0,68,0.00,,,0.01,weatherlink.com 1.10,2013-09-14 01:18:00,
2013-09-13 21:33:00,67.7,55.0,29.84,NNE,30,1.0,10.0,65,0.00,,,0.01,weatherlink.com 1.10,2013-09-14 01:33:00,
2013-09-13 21:48:00,67.0,56.0,29.84,SW,222,1.0,6.0,67,0.00,,,0.01,weatherlink.com 1.10,2013-09-14 01:48:00,
2013-09-13 22:04:00,66.8,55.0,29.85,WNW,293,0.0,5.0,66,0.00,,,0.01,weatherlink.com 1.10,2013-09-14 02:04:00,
2013-09-13 22:19:00,66.3,55.0,29.86,NNE,25,1.0,8.0,66,0.00,,,0.01,weatherlink.com 1.10,2013-09-14 02:19:00,
2013-09-13 22:34:00,66.1,55.0,29.86,NE,43,1.0,10.0,67,0.00,,,0.01,weatherlink.com 1.10,2013-09-14 02:34:00,
2013-09-13 22:49:00,65.5,55.0,29.86,NNE,30,0.0,6.0,68,0.00,,,0.01,weatherlink.com 1.10,2013-09-14 02:49:00,
2013-09-13 23:19:00,64.0,54.0,29.87,NNE,20,0.0,1.0,71,0.00,,,0.01,weatherlink.com 1.10,2013-09-14 03:19:00,
2013-09-13 23:34:00,63.4,55.0,29.87,WNW,294,0.0,6.0,73,0.00,,,0.01,weatherlink.com 1.10,2013-09-14 03:34:00,
2013-09-13 23:49:00,62.9,54.0,29.87,North,359,1.0,4.0,73,0.00,,,0.01,weatherlink.com 1.10,2013-09-14 03:49:00,